sensor_id;sensor_type;location;lat;lon;timestamp;pressure;altitude;pressure_sealevel;temperature;humidity
33155;BME280;19511;42.682;23.332;2023-03-13T00:03:37;95383.69;;;1.83;100.00
33155;BME280;19511;42.682;23.332;2023-03-13T00:06:06;95392.50;;;1.92;100.00
33155;BME280;19511;42.682;23.332;2023-03-13T00:08:32;95398.41;;;1.94;100.00
33155;BME280;19511;42.682;23.332;2023-03-13T00:11:04;95394.44;;;1.92;100.00
33155;BME280;19511;42.682;23.332;2023-03-13T00:13:36;95380.50;;;1.81;100.00
33155;BME280;19511;42.682;23.332;2023-03-13T00:16:08;95401.47;;;1.93;100.00
33155;BME280;19511;42.682;23.332;2023-03-13T00:18:34;95294.44;;;1.23;100.00
33155;BME280;19511;42.682;23.332;2023-03-13T00:21:01;95394.41;;;1.76;100.00
33155;BME280;19511;42.682;23.332;2023-03-13T00:23:28;95402.22;;;1.77;100.00
33155;BME280;19511;42.682;23.332;2023-03-13T00:26:02;95414.81;;;1.82;100.00
33155;BME280;19511;42.682;23.332;2023-03-13T00:28:29;95415.84;;;1.77;100.00
33155;BME280;19511;42.682;23.332;2023-03-13T00:31:08;95409.16;;;1.75;100.00
33155;BME280;19511;42.682;23.332;2023-03-13T00:33:38;95420.88;;;1.75;100.00
33155;BME280;19511;42.682;23.332;2023-03-13T00:36:06;95331.78;;;1.10;100.00
33155;BME280;19511;42.682;23.332;2023-03-13T00:38:32;95412.97;;;1.58;100.00
33155;BME280;19511;42.682;23.332;2023-03-13T00:41:05;95328.41;;;1.01;100.00
33155;BME280;19511;42.682;23.332;2023-03-13T00:43:32;95403.84;;;1.38;100.00
33155;BME280;19511;42.682;23.332;2023-03-13T00:45:58;95161.44;;;-0.22;100.00
33155;BME280;19511;42.682;23.332;2023-03-13T00:48:23;95405.53;;;1.42;100.00
33155;BME280;19511;42.682;23.332;2023-03-13T00:50:49;95411.31;;;1.41;100.00
33155;BME280;19511;42.682;23.332;2023-03-13T00:53:15;95407.31;;;1.51;100.00
33155;BME280;19511;42.682;23.332;2023-03-13T00:58:21;95421.50;;;1.56;100.00
33155;BME280;19511;42.682;23.332;2023-03-13T01:00:47;95394.28;;;1.44;100.00
33155;BME280;19511;42.682;23.332;2023-03-13T01:03:12;95405.41;;;1.51;100.00
33155;BME280;19511;42.682;23.332;2023-03-13T01:05:38;95408.44;;;1.50;100.00
33155;BME280;19511;42.682;23.332;2023-03-13T01:08:04;95407.06;;;1.56;100.00
33155;BME280;19511;42.682;23.332;2023-03-13T01:10:29;95406.06;;;1.48;100.00
33155;BME280;19511;42.682;23.332;2023-03-13T01:12:55;95296.34;;;0.82;100.00
33155;BME280;19511;42.682;23.332;2023-03-13T01:15:20;95396.88;;;1.53;100.00
33155;BME280;19511;42.682;23.332;2023-03-13T01:17:46;95380.22;;;1.29;100.00
33155;BME280;19511;42.682;23.332;2023-03-13T01:20:11;95405.63;;;1.46;100.00
33155;BME280;19511;42.682;23.332;2023-03-13T01:22:37;95408.25;;;1.42;100.00
33155;BME280;19511;42.682;23.332;2023-03-13T01:25:03;95392.75;;;1.18;100.00
33155;BME280;19511;42.682;23.332;2023-03-13T01:27:29;95406.38;;;1.18;100.00
33155;BME280;19511;42.682;23.332;2023-03-13T01:29:55;95413.28;;;1.28;100.00
33155;BME280;19511;42.682;23.332;2023-03-13T01:32:20;95406.44;;;1.34;100.00
33155;BME280;19511;42.682;23.332;2023-03-13T01:34:46;95417.47;;;1.38;100.00
33155;BME280;19511;42.682;23.332;2023-03-13T01:37:11;95407.94;;;1.32;100.00
33155;BME280;19511;42.682;23.332;2023-03-13T01:39:37;95419.84;;;1.39;100.00
33155;BME280;19511;42.682;23.332;2023-03-13T01:42:03;95420.19;;;1.38;100.00
33155;BME280;19511;42.682;23.332;2023-03-13T01:44:29;95428.13;;;1.30;100.00
33155;BME280;19511;42.682;23.332;2023-03-13T01:47:12;95425.44;;;1.18;100.00
33155;BME280;19511;42.682;23.332;2023-03-13T01:49:38;95412.50;;;1.15;100.00
33155;BME280;19511;42.682;23.332;2023-03-13T01:52:13;95427.00;;;1.19;100.00
33155;BME280;19511;42.682;23.332;2023-03-13T01:54:53;95390.50;;;0.95;100.00
33155;BME280;19511;42.682;23.332;2023-03-13T01:57:26;95418.66;;;1.12;100.00
33155;BME280;19511;42.682;23.332;2023-03-13T02:00:26;95415.91;;;1.12;100.00
33155;BME280;19511;42.682;23.332;2023-03-13T02:02:58;95430.44;;;1.04;100.00
33155;BME280;19511;42.682;23.332;2023-03-13T02:05:26;95334.59;;;0.24;100.00
33155;BME280;19511;42.682;23.332;2023-03-13T02:08:02;95429.31;;;0.92;100.00
33155;BME280;19511;42.682;23.332;2023-03-13T02:10:34;95427.41;;;0.93;100.00
33155;BME280;19511;42.682;23.332;2023-03-13T02:13:01;95426.38;;;0.85;100.00
33155;BME280;19511;42.682;23.332;2023-03-13T02:15:27;95424.09;;;0.75;100.00
33155;BME280;19511;42.682;23.332;2023-03-13T02:17:55;95421.81;;;0.77;100.00
33155;BME280;19511;42.682;23.332;2023-03-13T02:20:27;95434.53;;;0.60;100.00
33155;BME280;19511;42.682;23.332;2023-03-13T02:23:04;95354.34;;;-0.13;100.00
33155;BME280;19511;42.682;23.332;2023-03-13T02:28:21;95454.16;;;0.20;100.00
33155;BME280;19511;42.682;23.332;2023-03-13T02:30:50;95370.66;;;-0.25;100.00
33155;BME280;19511;42.682;23.332;2023-03-13T02:33:19;95459.16;;;0.30;100.00
33155;BME280;19511;42.682;23.332;2023-03-13T02:35:46;95467.25;;;0.39;100.00
33155;BME280;19511;42.682;23.332;2023-03-13T02:38:16;95368.00;;;-0.34;100.00
33155;BME280;19511;42.682;23.332;2023-03-13T02:40:46;95475.00;;;0.16;100.00
33155;BME280;19511;42.682;23.332;2023-03-13T02:43:17;95493.47;;;0.10;100.00
33155;BME280;19511;42.682;23.332;2023-03-13T02:48:39;95500.38;;;-0.13;100.00
33155;BME280;19511;42.682;23.332;2023-03-13T02:51:13;95508.88;;;-0.15;100.00
33155;BME280;19511;42.682;23.332;2023-03-13T02:53:41;95498.00;;;-0.36;100.00
33155;BME280;19511;42.682;23.332;2023-03-13T02:56:13;95497.84;;;-0.40;100.00
33155;BME280;19511;42.682;23.332;2023-03-13T02:58:43;95501.19;;;-0.34;100.00
33155;BME280;19511;42.682;23.332;2023-03-13T03:01:08;95485.41;;;-0.41;100.00
33155;BME280;19511;42.682;23.332;2023-03-13T03:03:34;95488.00;;;-0.44;100.00
33155;BME280;19511;42.682;23.332;2023-03-13T03:06:05;95500.56;;;-0.40;100.00
33155;BME280;19511;42.682;23.332;2023-03-13T03:08:32;95504.81;;;-0.51;100.00
33155;BME280;19511;42.682;23.332;2023-03-13T03:10:57;95503.06;;;-0.47;100.00
33155;BME280;19511;42.682;23.332;2023-03-13T03:13:27;95499.31;;;-0.63;100.00
33155;BME280;19511;42.682;23.332;2023-03-13T03:15:52;95401.31;;;-1.30;100.00
33155;BME280;19511;42.682;23.332;2023-03-13T03:18:18;95523.19;;;-0.48;100.00
33155;BME280;19511;42.682;23.332;2023-03-13T03:20:50;95429.91;;;-1.12;100.00
33155;BME280;19511;42.682;23.332;2023-03-13T03:23:16;95525.03;;;-0.61;100.00
33155;BME280;19511;42.682;23.332;2023-03-13T03:25:41;95523.28;;;-0.66;100.00
33155;BME280;19511;42.682;23.332;2023-03-13T03:28:06;95448.97;;;-1.21;100.00
33155;BME280;19511;42.682;23.332;2023-03-13T03:30:32;95427.56;;;-1.52;100.00
33155;BME280;19511;42.682;23.332;2023-03-13T03:32:57;95531.16;;;-1.03;100.00
33155;BME280;19511;42.682;23.332;2023-03-13T03:35:23;95535.50;;;-1.10;100.00
33155;BME280;19511;42.682;23.332;2023-03-13T03:37:48;95542.88;;;-1.28;100.00
33155;BME280;19511;42.682;23.332;2023-03-13T03:40:14;95526.50;;;-1.41;100.00
33155;BME280;19511;42.682;23.332;2023-03-13T03:42:39;95539.22;;;-1.33;100.00
33155;BME280;19511;42.682;23.332;2023-03-13T03:45:07;95525.84;;;-1.38;100.00
33155;BME280;19511;42.682;23.332;2023-03-13T03:47:33;95546.56;;;-1.24;100.00
33155;BME280;19511;42.682;23.332;2023-03-13T03:49:58;95575.72;;;-1.04;100.00
33155;BME280;19511;42.682;23.332;2023-03-13T03:52:24;95573.19;;;-1.18;100.00
33155;BME280;19511;42.682;23.332;2023-03-13T03:54:49;95476.31;;;-1.91;100.00
33155;BME280;19511;42.682;23.332;2023-03-13T03:57:14;95576.44;;;-1.33;100.00
33155;BME280;19511;42.682;23.332;2023-03-13T03:59:40;95586.97;;;-1.40;100.00
33155;BME280;19511;42.682;23.332;2023-03-13T04:02:05;95574.69;;;-1.46;100.00
33155;BME280;19511;42.682;23.332;2023-03-13T04:04:31;95590.78;;;-1.24;100.00
33155;BME280;19511;42.682;23.332;2023-03-13T04:07:04;95594.09;;;-1.18;100.00
33155;BME280;19511;42.682;23.332;2023-03-13T04:09:30;95593.94;;;-1.13;100.00
33155;BME280;19511;42.682;23.332;2023-03-13T04:11:59;95498.66;;;-1.76;100.00
33155;BME280;19511;42.682;23.332;2023-03-13T04:14:25;95602.22;;;-1.09;100.00
33155;BME280;19511;42.682;23.332;2023-03-13T04:16:50;95586.03;;;-1.44;100.00
33155;BME280;19511;42.682;23.332;2023-03-13T04:19:16;95596.22;;;-1.41;100.00
33155;BME280;19511;42.682;23.332;2023-03-13T04:21:45;95592.56;;;-1.37;100.00
33155;BME280;19511;42.682;23.332;2023-03-13T04:24:14;95604.53;;;-1.46;100.00
33155;BME280;19511;42.682;23.332;2023-03-13T04:26:40;95618.25;;;-1.25;100.00
33155;BME280;19511;42.682;23.332;2023-03-13T04:29:05;95614.25;;;-1.37;100.00
33155;BME280;19511;42.682;23.332;2023-03-13T04:31:31;95620.47;;;-1.45;100.00
33155;BME280;19511;42.682;23.332;2023-03-13T04:34:04;95618.44;;;-1.48;100.00
33155;BME280;19511;42.682;23.332;2023-03-13T04:36:29;95621.16;;;-1.48;100.00
33155;BME280;19511;42.682;23.332;2023-03-13T04:39:03;95623.38;;;-1.59;100.00
33155;BME280;19511;42.682;23.332;2023-03-13T04:41:28;95645.41;;;-1.43;100.00
33155;BME280;19511;42.682;23.332;2023-03-13T04:43:57;95651.59;;;-1.34;100.00
33155;BME280;19511;42.682;23.332;2023-03-13T04:46:26;95653.03;;;-1.19;100.00
33155;BME280;19511;42.682;23.332;2023-03-13T04:48:51;95648.25;;;-1.30;100.00
33155;BME280;19511;42.682;23.332;2023-03-13T04:51:17;95658.94;;;-1.17;100.00
33155;BME280;19511;42.682;23.332;2023-03-13T04:53:42;95573.94;;;-1.82;100.00
33155;BME280;19511;42.682;23.332;2023-03-13T04:56:08;95664.72;;;-1.27;100.00
33155;BME280;19511;42.682;23.332;2023-03-13T04:58:35;95658.78;;;-1.29;100.00
33155;BME280;19511;42.682;23.332;2023-03-13T05:01:04;95659.41;;;-1.23;100.00
33155;BME280;19511;42.682;23.332;2023-03-13T05:03:36;95657.50;;;-1.14;100.00
33155;BME280;19511;42.682;23.332;2023-03-13T05:06:02;95646.97;;;-1.24;100.00
33155;BME280;19511;42.682;23.332;2023-03-13T05:08:31;95656.06;;;-1.29;100.00
33155;BME280;19511;42.682;23.332;2023-03-13T05:10:56;95652.91;;;-1.49;100.00
33155;BME280;19511;42.682;23.332;2023-03-13T05:13:22;95639.47;;;-1.54;100.00
33155;BME280;19511;42.682;23.332;2023-03-13T05:15:48;95557.66;;;-2.08;100.00
33155;BME280;19511;42.682;23.332;2023-03-13T05:18:13;95686.09;;;-1.25;100.00
33155;BME280;19511;42.682;23.332;2023-03-13T05:20:39;95653.53;;;-1.43;100.00
33155;BME280;19511;42.682;23.332;2023-03-13T05:23:04;95668.88;;;-1.29;100.00
33155;BME280;19511;42.682;23.332;2023-03-13T05:25:30;95686.09;;;-1.25;100.00
33155;BME280;19511;42.682;23.332;2023-03-13T05:27:55;95677.78;;;-1.20;100.00
33155;BME280;19511;42.682;23.332;2023-03-13T05:30:23;95670.56;;;-1.07;100.00
33155;BME280;19511;42.682;23.332;2023-03-13T05:32:49;95687.00;;;-0.95;100.00
33155;BME280;19511;42.682;23.332;2023-03-13T05:35:14;95697.84;;;-0.86;100.00
33155;BME280;19511;42.682;23.332;2023-03-13T05:37:39;95687.28;;;-0.79;100.00
33155;BME280;19511;42.682;23.332;2023-03-13T05:40:05;95632.72;;;-1.04;100.00
33155;BME280;19511;42.682;23.332;2023-03-13T05:42:32;95688.00;;;-0.52;100.00
33155;BME280;19511;42.682;23.332;2023-03-13T05:44:58;95693.28;;;-0.47;100.00
33155;BME280;19511;42.682;23.332;2023-03-13T05:47:23;95695.81;;;-0.42;100.00
33155;BME280;19511;42.682;23.332;2023-03-13T05:49:49;95690.25;;;-0.54;100.00
33155;BME280;19511;42.682;23.332;2023-03-13T05:52:14;95694.56;;;-0.53;100.00
33155;BME280;19511;42.682;23.332;2023-03-13T05:54:40;95708.88;;;-0.35;100.00
33155;BME280;19511;42.682;23.332;2023-03-13T05:57:05;95717.00;;;-0.26;100.00
33155;BME280;19511;42.682;23.332;2023-03-13T05:59:33;95710.91;;;-0.23;100.00
33155;BME280;19511;42.682;23.332;2023-03-13T06:01:58;95712.44;;;-0.05;100.00
33155;BME280;19511;42.682;23.332;2023-03-13T06:04:24;95710.09;;;-0.15;100.00
33155;BME280;19511;42.682;23.332;2023-03-13T06:06:49;95560.22;;;-1.12;100.00
33155;BME280;19511;42.682;23.332;2023-03-13T06:09:14;95713.56;;;-0.06;100.00
33155;BME280;19511;42.682;23.332;2023-03-13T06:11:40;95713.19;;;0.05;100.00
33155;BME280;19511;42.682;23.332;2023-03-13T06:14:06;95723.69;;;0.15;100.00
33155;BME280;19511;42.682;23.332;2023-03-13T06:16:33;95712.94;;;0.19;100.00
33155;BME280;19511;42.682;23.332;2023-03-13T06:18:59;95645.06;;;-0.29;100.00
33155;BME280;19511;42.682;23.332;2023-03-13T06:21:24;95721.44;;;0.17;100.00
33155;BME280;19511;42.682;23.332;2023-03-13T06:23:50;95724.84;;;0.35;100.00
33155;BME280;19511;42.682;23.332;2023-03-13T06:26:16;95705.47;;;0.37;100.00
33155;BME280;19511;42.682;23.332;2023-03-13T06:28:41;95713.25;;;0.47;100.00
33155;BME280;19511;42.682;23.332;2023-03-13T06:31:07;95724.41;;;0.54;100.00
33155;BME280;19511;42.682;23.332;2023-03-13T06:33:36;95722.94;;;0.57;100.00
33155;BME280;19511;42.682;23.332;2023-03-13T06:36:02;95698.66;;;0.73;100.00
33155;BME280;19511;42.682;23.332;2023-03-13T06:38:28;95675.41;;;0.75;100.00
33155;BME280;19511;42.682;23.332;2023-03-13T06:40:55;95699.03;;;0.84;100.00
33155;BME280;19511;42.682;23.332;2023-03-13T06:43:25;95678.06;;;0.84;100.00
33155;BME280;19511;42.682;23.332;2023-03-13T06:45:53;95693.50;;;0.92;100.00
33155;BME280;19511;42.682;23.332;2023-03-13T06:48:20;95706.28;;;1.13;100.00
33155;BME280;19511;42.682;23.332;2023-03-13T06:50:48;95703.56;;;1.13;100.00
33155;BME280;19511;42.682;23.332;2023-03-13T06:53:22;95613.47;;;0.51;100.00
33155;BME280;19511;42.682;23.332;2023-03-13T06:55:59;95627.84;;;0.73;100.00
33155;BME280;19511;42.682;23.332;2023-03-13T06:58:24;95676.78;;;1.15;100.00
33155;BME280;19511;42.682;23.332;2023-03-13T07:00:49;95615.63;;;0.79;100.00
33155;BME280;19511;42.682;23.332;2023-03-13T07:03:15;95685.56;;;1.21;100.00
33155;BME280;19511;42.682;23.332;2023-03-13T07:05:40;95706.72;;;1.36;100.00
33155;BME280;19511;42.682;23.332;2023-03-13T07:08:06;95699.28;;;1.24;100.00
33155;BME280;19511;42.682;23.332;2023-03-13T07:10:31;95698.63;;;1.27;100.00
33155;BME280;19511;42.682;23.332;2023-03-13T07:12:57;95698.78;;;1.43;100.00
33155;BME280;19511;42.682;23.332;2023-03-13T07:15:22;95675.81;;;1.32;100.00
33155;BME280;19511;42.682;23.332;2023-03-13T07:17:48;95709.59;;;1.65;100.00
33155;BME280;19511;42.682;23.332;2023-03-13T07:20:16;95676.63;;;1.57;100.00
33155;BME280;19511;42.682;23.332;2023-03-13T07:22:41;95676.06;;;1.52;100.00
33155;BME280;19511;42.682;23.332;2023-03-13T07:25:07;95688.03;;;1.72;100.00
33155;BME280;19511;42.682;23.332;2023-03-13T07:27:33;95689.19;;;1.83;100.00
33155;BME280;19511;42.682;23.332;2023-03-13T07:30:03;95687.59;;;1.82;100.00
33155;BME280;19511;42.682;23.332;2023-03-13T07:32:32;95677.56;;;1.74;100.00
33155;BME280;19511;42.682;23.332;2023-03-13T07:34:58;95670.31;;;1.78;100.00
33155;BME280;19511;42.682;23.332;2023-03-13T07:37:23;95694.75;;;1.87;100.00
33155;BME280;19511;42.682;23.332;2023-03-13T07:39:53;95687.59;;;1.82;100.00
33155;BME280;19511;42.682;23.332;2023-03-13T07:42:20;95691.91;;;1.95;100.00
33155;BME280;19511;42.682;23.332;2023-03-13T07:44:50;95689.28;;;1.99;100.00
33155;BME280;19511;42.682;23.332;2023-03-13T07:47:17;95697.81;;;2.10;100.00
33155;BME280;19511;42.682;23.332;2023-03-13T07:49:48;95687.25;;;1.96;100.00
33155;BME280;19511;42.682;23.332;2023-03-13T07:52:13;95696.22;;;2.09;100.00
33155;BME280;19511;42.682;23.332;2023-03-13T07:54:39;95687.81;;;2.14;100.00
33155;BME280;19511;42.682;23.332;2023-03-13T07:57:05;95595.91;;;1.65;100.00
33155;BME280;19511;42.682;23.332;2023-03-13T07:59:30;95677.06;;;2.46;100.00
33155;BME280;19511;42.682;23.332;2023-03-13T08:01:56;95676.34;;;2.61;100.00
33155;BME280;19511;42.682;23.332;2023-03-13T08:04:22;95678.47;;;2.81;100.00
33155;BME280;19511;42.682;23.332;2023-03-13T08:06:47;95653.69;;;2.73;100.00
33155;BME280;19511;42.682;23.332;2023-03-13T08:09:12;95640.94;;;2.65;100.00
33155;BME280;19511;42.682;23.332;2023-03-13T08:11:38;95684.97;;;2.76;100.00
33155;BME280;19511;42.682;23.332;2023-03-13T08:14:14;95664.00;;;2.80;100.00
33155;BME280;19511;42.682;23.332;2023-03-13T08:16:43;95670.63;;;3.07;100.00
33155;BME280;19511;42.682;23.332;2023-03-13T08:19:14;95669.97;;;3.26;100.00
33155;BME280;19511;42.682;23.332;2023-03-13T08:21:39;95673.22;;;3.32;100.00
33155;BME280;19511;42.682;23.332;2023-03-13T08:24:06;95673.94;;;3.29;100.00
33155;BME280;19511;42.682;23.332;2023-03-13T08:26:37;95657.69;;;3.36;100.00
33155;BME280;19511;42.682;23.332;2023-03-13T08:29:09;95659.56;;;3.64;100.00
33155;BME280;19511;42.682;23.332;2023-03-13T08:31:46;95680.69;;;3.64;100.00
33155;BME280;19511;42.682;23.332;2023-03-13T08:34:12;95591.88;;;3.13;100.00
33155;BME280;19511;42.682;23.332;2023-03-13T08:36:39;95583.16;;;3.23;100.00
33155;BME280;19511;42.682;23.332;2023-03-13T08:39:08;95682.88;;;4.06;100.00
33155;BME280;19511;42.682;23.332;2023-03-13T08:41:36;95679.69;;;4.20;100.00
33155;BME280;19511;42.682;23.332;2023-03-13T08:44:14;95679.72;;;4.04;100.00
33155;BME280;19511;42.682;23.332;2023-03-13T08:46:40;95647.06;;;3.63;99.84
33155;BME280;19511;42.682;23.332;2023-03-13T08:49:07;95660.03;;;3.82;100.00
33155;BME280;19511;42.682;23.332;2023-03-13T08:51:33;95658.97;;;3.87;99.82
33155;BME280;19511;42.682;23.332;2023-03-13T08:54:00;95670.94;;;4.14;98.86
33155;BME280;19511;42.682;23.332;2023-03-13T08:56:27;95652.47;;;4.11;100.00
33155;BME280;19511;42.682;23.332;2023-03-13T08:58:58;95660.84;;;4.34;96.22
33155;BME280;19511;42.682;23.332;2023-03-13T09:01:26;95658.78;;;4.47;96.29
33155;BME280;19511;42.682;23.332;2023-03-13T09:03:52;95660.44;;;4.52;95.84
33155;BME280;19511;42.682;23.332;2023-03-13T09:06:18;95545.34;;;3.77;93.93
33155;BME280;19511;42.682;23.332;2023-03-13T09:08:44;95608.13;;;4.21;94.61
33155;BME280;19511;42.682;23.332;2023-03-13T09:11:15;95659.25;;;4.69;94.65
33155;BME280;19511;42.682;23.332;2023-03-13T09:13:43;95664.00;;;4.72;92.05
33155;BME280;19511;42.682;23.332;2023-03-13T09:16:12;95651.31;;;4.64;96.50
33155;BME280;19511;42.682;23.332;2023-03-13T09:18:38;95576.88;;;4.42;96.98
33155;BME280;19511;42.682;23.332;2023-03-13T09:21:15;95652.50;;;5.25;94.22
33155;BME280;19511;42.682;23.332;2023-03-13T09:23:41;95643.06;;;5.22;87.53
33155;BME280;19511;42.682;23.332;2023-03-13T09:26:06;95616.06;;;5.05;87.79
33155;BME280;19511;42.682;23.332;2023-03-13T09:28:32;95646.41;;;5.35;87.99
33155;BME280;19511;42.682;23.332;2023-03-13T09:31:09;95636.72;;;5.42;88.63
33155;BME280;19511;42.682;23.332;2023-03-13T09:33:36;95569.06;;;5.03;85.13
33155;BME280;19511;42.682;23.332;2023-03-13T09:36:03;95638.41;;;5.27;85.82
33155;BME280;19511;42.682;23.332;2023-03-13T09:38:29;95650.97;;;5.47;87.44
33155;BME280;19511;42.682;23.332;2023-03-13T09:40:54;95589.72;;;5.20;84.61
33155;BME280;19511;42.682;23.332;2023-03-13T09:45:57;95647.78;;;5.68;85.43
33155;BME280;19511;42.682;23.332;2023-03-13T09:48:38;95552.25;;;5.28;85.17
33155;BME280;19511;42.682;23.332;2023-03-13T09:51:25;95642.00;;;5.97;84.28
33155;BME280;19511;42.682;23.332;2023-03-13T09:53:57;95637.47;;;6.08;81.95
33155;BME280;19511;42.682;23.332;2023-03-13T09:56:30;95624.94;;;5.87;80.44
33155;BME280;19511;42.682;23.332;2023-03-13T09:59:04;95637.47;;;6.08;79.59
33155;BME280;19511;42.682;23.332;2023-03-13T10:01:32;95625.75;;;6.11;80.31
33155;BME280;19511;42.682;23.332;2023-03-13T10:04:25;95647.19;;;6.02;78.83
33155;BME280;19511;42.682;23.332;2023-03-13T10:06:53;95584.84;;;5.79;79.86
33155;BME280;19511;42.682;23.332;2023-03-13T10:09:23;95624.97;;;6.11;78.87
33155;BME280;19511;42.682;23.332;2023-03-13T10:12:00;95632.59;;;6.25;80.50
33155;BME280;19511;42.682;23.332;2023-03-13T10:14:52;95619.13;;;6.43;78.96
33155;BME280;19511;42.682;23.332;2023-03-13T10:17:34;95620.09;;;6.58;79.06
33155;BME280;19511;42.682;23.332;2023-03-13T10:20:24;95606.47;;;6.65;77.67
33155;BME280;19511;42.682;23.332;2023-03-13T10:23:04;95601.66;;;6.89;77.69
33155;BME280;19511;42.682;23.332;2023-03-13T10:25:33;95591.25;;;7.09;75.84
33155;BME280;19511;42.682;23.332;2023-03-13T10:28:00;95575.41;;;7.36;78.93
33155;BME280;19511;42.682;23.332;2023-03-13T10:30:30;95583.28;;;7.38;71.75
33155;BME280;19511;42.682;23.332;2023-03-13T10:33:20;95569.13;;;7.35;70.52
33155;BME280;19511;42.682;23.332;2023-03-13T10:35:59;95571.53;;;7.41;71.71
33155;BME280;19511;42.682;23.332;2023-03-13T10:38:25;95510.34;;;7.13;70.76
33155;BME280;19511;42.682;23.332;2023-03-13T10:41:06;95551.34;;;7.74;70.49
33155;BME280;19511;42.682;23.332;2023-03-13T10:43:50;95545.91;;;7.81;69.46
33155;BME280;19511;42.682;23.332;2023-03-13T10:46:30;95505.63;;;7.62;74.04
33155;BME280;19511;42.682;23.332;2023-03-13T10:48:59;95548.44;;;8.08;72.13
33155;BME280;19511;42.682;23.332;2023-03-13T10:51:34;95549.75;;;7.73;67.09
33155;BME280;19511;42.682;23.332;2023-03-13T10:54:12;95538.75;;;7.73;67.49
33155;BME280;19511;42.682;23.332;2023-03-13T10:56:38;95556.09;;;7.77;67.60
33155;BME280;19511;42.682;23.332;2023-03-13T10:59:22;95513.34;;;7.42;67.41
33155;BME280;19511;42.682;23.332;2023-03-13T11:01:51;95491.13;;;7.17;66.92
33155;BME280;19511;42.682;23.332;2023-03-13T11:04:19;95529.91;;;7.46;66.98
33155;BME280;19511;42.682;23.332;2023-03-13T11:07:04;95533.84;;;7.48;68.23
33155;BME280;19511;42.682;23.332;2023-03-13T11:09:30;95527.72;;;7.73;70.54
33155;BME280;19511;42.682;23.332;2023-03-13T11:12:03;95521.97;;;7.93;67.53
33155;BME280;19511;42.682;23.332;2023-03-13T11:14:30;95515.41;;;8.15;70.21
33155;BME280;19511;42.682;23.332;2023-03-13T11:17:36;95518.38;;;8.52;70.39
33155;BME280;19511;42.682;23.332;2023-03-13T11:36:37;95484.88;;;8.53;62.11
33155;BME280;19511;42.682;23.332;2023-03-13T11:57:15;95448.75;;;8.91;63.06
33155;BME280;19511;42.682;23.332;2023-03-13T12:04:53;95377.78;;;8.70;63.25
33155;BME280;19511;42.682;23.332;2023-03-13T12:07:33;95436.91;;;9.01;61.60
33155;BME280;19511;42.682;23.332;2023-03-13T12:10:26;95431.41;;;8.90;62.18
33155;BME280;19511;42.682;23.332;2023-03-13T12:13:07;95409.75;;;9.07;62.57
33155;BME280;19511;42.682;23.332;2023-03-13T12:15:39;95411.69;;;9.03;61.16
33155;BME280;19511;42.682;23.332;2023-03-13T12:18:34;95422.34;;;9.11;62.58
33155;BME280;19511;42.682;23.332;2023-03-13T12:21:04;95401.47;;;9.10;61.88
33155;BME280;19511;42.682;23.332;2023-03-13T12:29:54;95409.72;;;9.21;61.84
33155;BME280;19511;42.682;23.332;2023-03-13T12:32:36;95411.69;;;9.28;59.87
33155;BME280;19511;42.682;23.332;2023-03-13T12:35:26;95397.13;;;9.13;60.15
33155;BME280;19511;42.682;23.332;2023-03-13T12:38:16;95409.34;;;9.37;61.43
33155;BME280;19511;42.682;23.332;2023-03-13T12:41:07;95304.09;;;9.03;63.54
33155;BME280;19511;42.682;23.332;2023-03-13T12:43:38;95384.75;;;9.90;62.28
33155;BME280;19511;42.682;23.332;2023-03-13T12:54:32;95402.16;;;9.72;58.56
33155;BME280;19511;42.682;23.332;2023-03-13T13:00:13;95392.34;;;9.50;57.04
33155;BME280;19511;42.682;23.332;2023-03-13T13:02:41;95402.97;;;9.58;57.23
33155;BME280;19511;42.682;23.332;2023-03-13T13:05:20;95388.75;;;9.63;58.41
33155;BME280;19511;42.682;23.332;2023-03-13T13:07:53;95393.84;;;9.87;57.82
33155;BME280;19511;42.682;23.332;2023-03-13T13:10:20;95405.19;;;10.10;57.56
33155;BME280;19511;42.682;23.332;2023-03-13T13:15:43;95395.72;;;10.04;57.74
33155;BME280;19511;42.682;23.332;2023-03-13T13:18:31;95393.34;;;10.10;56.93
33155;BME280;19511;42.682;23.332;2023-03-13T13:23:39;95397.78;;;9.93;55.95
33155;BME280;19511;42.682;23.332;2023-03-13T13:36:53;95367.38;;;10.74;53.76
33155;BME280;19511;42.682;23.332;2023-03-13T13:39:38;95374.09;;;10.73;53.92
33155;BME280;19511;42.682;23.332;2023-03-13T13:45:02;95365.50;;;10.57;53.05
33155;BME280;19511;42.682;23.332;2023-03-13T13:47:30;95369.53;;;10.45;53.56
33155;BME280;19511;42.682;23.332;2023-03-13T13:49:58;95374.22;;;10.52;52.95
33155;BME280;19511;42.682;23.332;2023-03-13T13:52:36;95371.09;;;10.46;53.38
33155;BME280;19511;42.682;23.332;2023-03-13T13:55:28;95370.28;;;10.49;52.90
33155;BME280;19511;42.682;23.332;2023-03-13T13:57:48;95278.91;;;10.00;52.70
33155;BME280;19511;42.682;23.332;2023-03-13T14:00:24;95357.72;;;10.34;52.88
33155;BME280;19511;42.682;23.332;2023-03-13T14:02:55;95360.84;;;10.39;53.33
33155;BME280;19511;42.682;23.332;2023-03-13T14:05:27;95373.09;;;10.42;53.48
33155;BME280;19511;42.682;23.332;2023-03-13T14:10:37;95355.31;;;10.43;53.49
33155;BME280;19511;42.682;23.332;2023-03-13T14:13:15;95356.78;;;10.58;53.38
33155;BME280;19511;42.682;23.332;2023-03-13T14:15:44;95342.63;;;10.53;54.14
33155;BME280;19511;42.682;23.332;2023-03-13T14:18:25;95356.34;;;10.67;52.50
33155;BME280;19511;42.682;23.332;2023-03-13T14:21:06;95299.72;;;10.23;52.78
33155;BME280;19511;42.682;23.332;2023-03-13T14:23:43;95326.06;;;10.45;52.42
33155;BME280;19511;42.682;23.332;2023-03-13T14:26:19;95348.03;;;10.67;53.15
33155;BME280;19511;42.682;23.332;2023-03-13T14:28:51;95347.19;;;10.74;52.15
33155;BME280;19511;42.682;23.332;2023-03-13T14:33:55;95352.53;;;10.99;52.60
33155;BME280;19511;42.682;23.332;2023-03-13T14:36:21;95343.09;;;10.93;53.00
33155;BME280;19511;42.682;23.332;2023-03-13T14:39:00;95354.06;;;11.07;52.09